Colorado Springs, CO (80941)

6:24 AM MDT on August 27, 2014 (GMT -0600)
Carefree Circle S & Windward Circle Village 7 | Change Station
CLOSE
Current Station
Personal Weather Station
Location: Colorado Springs, CO
Elevation: 6509 ft
Nearby Weather Stations

Elev 6509 ft 38.88 °N, 104.74 °W | Updated 6 seconds ago

Mostly Cloudy
Mostly Cloudy
53.9 °F
Feels Like 53.9 °F
N
0.0
Wind Variable Wind from ESE
Gusts 0.0 mph

Today
High -- | Low -- °F
--% Chance of Precip.
Yesterday
High -- | Low -- °F
Precip. -- in
6:23 AM 7:36 PM
Waxing Crescent, 3% visible
Pressure 30.03 in
Visibility 10.0 miles
Clouds Few 9000 ft
Scattered Clouds 11000 ft
Mostly Cloudy 20000 ft
Dew Point 53 °F
Humidity 98%
Rainfall 0.00 in
Snow Depth 0 in
UV 0.0 out of 12
Pollen 8.10 out of 12
Ozone Good
PM2.5 Good
Flu Activity Not available.
METAR KCOS 271154Z 05004KT 10SM FEW090 SCT110 BKN200 13/11 A3022 RMK AO2 SLP168 T01280111 10167 20128 55003

More Conditions Fewer Conditions

Pressure 30.03 in
Visibility 10.0 miles
Clouds Few 9000 ft
Scattered Clouds 11000 ft
Mostly Cloudy 20000 ft
Dew Point 53 °F
Humidity 98%
Rainfall 0.00 in
Snow Depth 0 in
UV 0.0 out of 12
Pollen 8.10 out of 12
Ozone Good
PM2.5 Good
Flu Activity Not available.
METAR KCOS 271154Z 05004KT 10SM FEW090 SCT110 BKN200 13/11 A3022 RMK AO2 SLP168 T01280111 10167 20128 55003

More Conditions Fewer Conditions

10-Day Weather Forecast

Almanac

Astronomy

Aug. 27, 2014 Rise Set
Actual Time 6:23 AM MDT 7:36 PM MDT
Civil Twilight 5:55 AM MDT 8:04 PM MDT
Nautical Twilight 5:22 AM MDT 8:37 PM MDT
Astronomical Twilight 4:48 AM MDT 9:11 PM MDT
Moon 8:20 AM MDT 8:32 PM MDT
Length of Visible Light 14h 08m
Length of Day
13h 13m
Tomorrow will be 2m 23s shorter.
Waxing Crescent, 3% of the Moon is Illuminated
Today
Waxing Crescent
Sep 2
First Quarter
Sep 8
Full
Sep 15
Last Quarter
Sep 24
New

Today's Extremes

State Highs State Lows

Community

WunderPhotos

Upload Photos

1,747,675 photos uploaded!

Nearby

Air Quality

  Air Quality AQ Index Pollutant
Yesterday Good
OZONE
Yesterday Good
PM2.5
Current Good
OZONE
Current Good
PM2.5
Wednesday Good
PM2.5
Wednesday Good
OZONE

Snow Depth

Station Depth Elevation
Glen Cove 0 in 11460 ft
Echo Lake 0 in 10600 ft
Rough And Tumble 1 in 10360 ft
Michigan Creek 0 in 10600 ft
Jackwhacker Gulch 0 in 10960 ft

Earthquake Activity

City Distance Mag. Time & Date
No recent earthquake activity has been reported nearby.
Minimum magnitude displayed is 2.5.

Coastal Water Temperatures

Place Temperature
No Stations Reporting

Nearby Weather Stations